sensor_id;sensor_type;location;lat;lon;timestamp;P1;P2;P0
77354;PMS7003;66422;51.202;19.936;2023-04-21T00:09:17;41.75;32.25;25.75
77354;PMS7003;66422;51.202;19.936;2023-04-21T00:24:37;62.00;39.00;27.00
77354;PMS7003;66422;51.202;19.936;2023-04-21T00:39:56;51.00;38.00;27.00
77354;PMS7003;66422;51.202;19.936;2023-04-21T00:55:17;55.25;43.75;28.00
77354;PMS7003;66422;51.202;19.936;2023-04-21T01:10:37;53.00;39.50;30.00
77354;PMS7003;66422;51.202;19.936;2023-04-21T01:25:57;51.00;40.00;27.00
77354;PMS7003;66422;51.202;19.936;2023-04-21T01:41:17;51.00;37.50;25.00
77354;PMS7003;66422;51.202;19.936;2023-04-21T01:56:36;54.00;38.50;29.00
77354;PMS7003;66422;51.202;19.936;2023-04-21T02:11:56;49.00;39.00;29.00
77354;PMS7003;66422;51.202;19.936;2023-04-21T02:27:16;45.00;39.00;27.00
77354;PMS7003;66422;51.202;19.936;2023-04-21T02:42:36;55.00;38.00;28.00
77354;PMS7003;66422;51.202;19.936;2023-04-21T02:57:56;46.00;39.00;28.00
77354;PMS7003;66422;51.202;19.936;2023-04-21T03:13:16;51.50;40.50;26.00
77354;PMS7003;66422;51.202;19.936;2023-04-21T03:28:35;52.00;42.50;28.00
77354;PMS7003;66422;51.202;19.936;2023-04-21T03:43:55;48.00;42.00;29.00
77354;PMS7003;66422;51.202;19.936;2023-04-21T03:59:15;72.00;45.00;29.00
77354;PMS7003;66422;51.202;19.936;2023-04-21T04:14:35;63.67;47.00;32.67
77354;PMS7003;66422;51.202;19.936;2023-04-21T04:29:54;66.25;47.25;31.25
77354;PMS7003;66422;51.202;19.936;2023-04-21T04:45:14;66.50;52.00;34.00
77354;PMS7003;66422;51.202;19.936;2023-04-21T05:00:35;74.50;50.50;34.00
77354;PMS7003;66422;51.202;19.936;2023-04-21T05:15:56;65.25;47.25;30.25
77354;PMS7003;66422;51.202;19.936;2023-04-21T05:31:22;66.00;53.00;34.00
77354;PMS7003;66422;51.202;19.936;2023-04-21T05:46:42;57.00;45.00;31.00
77354;PMS7003;66422;51.202;19.936;2023-04-21T06:02:02;56.00;43.50;30.00
77354;PMS7003;66422;51.202;19.936;2023-04-21T06:17:22;49.25;39.00;27.00
77354;PMS7003;66422;51.202;19.936;2023-04-21T06:32:43;34.00;24.50;19.50
77354;PMS7003;66422;51.202;19.936;2023-04-21T06:48:06;30.00;25.00;17.50
77354;PMS7003;66422;51.202;19.936;2023-04-21T07:03:26;27.00;26.00;18.00
77354;PMS7003;66422;51.202;19.936;2023-04-21T07:18:46;27.50;24.50;18.50
77354;PMS7003;66422;51.202;19.936;2023-04-21T07:34:05;33.67;25.67;21.33
77354;PMS7003;66422;51.202;19.936;2023-04-21T07:49:25;34.67;31.00;22.33
77354;PMS7003;66422;51.202;19.936;2023-04-21T08:04:45;30.67;27.33;20.33
77354;PMS7003;66422;51.202;19.936;2023-04-21T08:20:04;27.00;24.67;20.33
77354;PMS7003;66422;51.202;19.936;2023-04-21T08:35:25;22.00;21.00;16.00
77354;PMS7003;66422;51.202;19.936;2023-04-21T08:50:44;16.67;16.67;14.33
77354;PMS7003;66422;51.202;19.936;2023-04-21T09:06:07;15.00;14.00;10.25
77354;PMS7003;66422;51.202;19.936;2023-04-21T09:21:28;17.00;12.67;11.00
77354;PMS7003;66422;51.202;19.936;2023-04-21T09:36:48;16.00;13.50;9.50
77354;PMS7003;66422;51.202;19.936;2023-04-21T09:52:21;14.00;11.00;10.00
77354;PMS7003;66422;51.202;19.936;2023-04-21T10:07:44;14.00;13.00;11.00
77354;PMS7003;66422;51.202;19.936;2023-04-21T10:23:04;11.00;11.00;10.00
77354;PMS7003;66422;51.202;19.936;2023-04-21T10:38:33;11.50;11.00;8.00
77354;PMS7003;66422;51.202;19.936;2023-04-21T10:53:58;13.67;12.67;10.67
77354;PMS7003;66422;51.202;19.936;2023-04-21T11:09:17;12.75;12.75;10.75
77354;PMS7003;66422;51.202;19.936;2023-04-21T11:24:37;9.33;9.33;7.00
77354;PMS7003;66422;51.202;19.936;2023-04-21T11:40:04;10.00;9.00;7.00
77354;PMS7003;66422;51.202;19.936;2023-04-21T11:55:27;11.50;9.50;7.00
77354;PMS7003;66422;51.202;19.936;2023-04-21T12:10:47;10.00;10.00;8.00
77354;PMS7003;66422;51.202;19.936;2023-04-21T12:26:07;9.00;8.00;7.00
77354;PMS7003;66422;51.202;19.936;2023-04-21T12:41:27;11.50;9.00;8.00
77354;PMS7003;66422;51.202;19.936;2023-04-21T12:56:47;14.00;9.25;8.00
77354;PMS7003;66422;51.202;19.936;2023-04-21T13:12:07;10.00;9.00;7.00
77354;PMS7003;66422;51.202;19.936;2023-04-21T13:27:26;13.50;10.00;7.50
77354;PMS7003;66422;51.202;19.936;2023-04-21T13:42:46;10.00;8.50;7.50
77354;PMS7003;66422;51.202;19.936;2023-04-21T13:58:07;12.00;8.67;7.00
77354;PMS7003;66422;51.202;19.936;2023-04-21T14:13:27;11.33;8.67;7.00
77354;PMS7003;66422;51.202;19.936;2023-04-21T14:28:49;12.50;10.50;9.00
77354;PMS7003;66422;51.202;19.936;2023-04-21T14:44:09;10.50;9.75;8.00
77354;PMS7003;66422;51.202;19.936;2023-04-21T14:59:29;10.00;10.00;8.00
77354;PMS7003;66422;51.202;19.936;2023-04-21T15:14:49;7.00;5.00;5.00
77354;PMS7003;66422;51.202;19.936;2023-04-21T15:30:09;8.00;6.33;5.33
77354;PMS7003;66422;51.202;19.936;2023-04-21T15:45:30;9.00;9.00;7.75
77354;PMS7003;66422;51.202;19.936;2023-04-21T16:00:50;9.50;9.00;7.50
77354;PMS7003;66422;51.202;19.936;2023-04-21T16:16:09;10.67;10.33;8.33
77354;PMS7003;66422;51.202;19.936;2023-04-21T16:31:29;8.50;8.25;7.00
77354;PMS7003;66422;51.202;19.936;2023-04-21T16:46:49;10.00;10.00;8.00
77354;PMS7003;66422;51.202;19.936;2023-04-21T17:02:09;14.00;12.50;10.50
77354;PMS7003;66422;51.202;19.936;2023-04-21T17:17:31;21.50;11.00;9.00
77354;PMS7003;66422;51.202;19.936;2023-04-21T17:32:59;9.00;9.00;7.00
77354;PMS7003;66422;51.202;19.936;2023-04-21T17:48:19;13.00;9.00;8.00
77354;PMS7003;66422;51.202;19.936;2023-04-21T18:03:39;11.00;8.00;6.00
77354;PMS7003;66422;51.202;19.936;2023-04-21T18:19:00;13.67;11.33;10.00
77354;PMS7003;66422;51.202;19.936;2023-04-21T18:34:20;16.00;11.50;10.00
77354;PMS7003;66422;51.202;19.936;2023-04-21T18:49:40;16.00;14.67;11.33
77354;PMS7003;66422;51.202;19.936;2023-04-21T19:05:00;58.00;39.50;26.00
77354;PMS7003;66422;51.202;19.936;2023-04-21T19:20:20;19.50;14.50;10.00
77354;PMS7003;66422;51.202;19.936;2023-04-21T19:35:40;31.67;26.33;17.33
77354;PMS7003;66422;51.202;19.936;2023-04-21T19:51:01;51.33;38.33;25.00
77354;PMS7003;66422;51.202;19.936;2023-04-21T20:06:20;25.67;19.67;13.67
77354;PMS7003;66422;51.202;19.936;2023-04-21T20:21:40;29.00;20.00;15.00
77354;PMS7003;66422;51.202;19.936;2023-04-21T20:37:01;17.67;17.67;13.33
77354;PMS7003;66422;51.202;19.936;2023-04-21T20:52:24;43.75;39.00;27.75
77354;PMS7003;66422;51.202;19.936;2023-04-21T21:07:44;33.00;22.50;18.00
77354;PMS7003;66422;51.202;19.936;2023-04-21T21:23:03;26.00;17.00;11.33
77354;PMS7003;66422;51.202;19.936;2023-04-21T21:38:24;30.00;22.50;16.00
77354;PMS7003;66422;51.202;19.936;2023-04-21T21:53:44;25.00;19.00;13.00
77354;PMS7003;66422;51.202;19.936;2023-04-21T22:09:04;18.00;13.33;12.00
77354;PMS7003;66422;51.202;19.936;2023-04-21T22:24:24;12.50;7.00;5.00
77354;PMS7003;66422;51.202;19.936;2023-04-21T22:39:44;28.00;20.50;13.00
77354;PMS7003;66422;51.202;19.936;2023-04-21T22:55:04;37.25;31.00;21.50
77354;PMS7003;66422;51.202;19.936;2023-04-21T23:10:24;62.33;46.00;30.33
77354;PMS7003;66422;51.202;19.936;2023-04-21T23:25:44;50.33;36.00;26.67
77354;PMS7003;66422;51.202;19.936;2023-04-21T23:41:04;49.50;41.00;27.00
77354;PMS7003;66422;51.202;19.936;2023-04-21T23:56:24;47.50;36.25;25.00
